Time;durP1;ratioP1;P1;durP2;ratioP2;P2;SDS_P1;SDS_P2;PMS_P1;PMS_P2;Temp;Humidity;BMP_temperature;BMP_pressure;BME280_temperature;BME280_humidity;BME280_pressure;Samples;Min_cycle;Max_cycle;Signal;HPM_P1;HPM_P2
2023/10/28 00:02:16;0.00;0.00;0.62;0.00;0.00;0.62;4.53;3.87;;;23.40;30.00;;;;;;2261720;61;20396;-58
2023/10/28 00:05:01;0.00;0.00;0.62;0.00;0.00;0.62;4.87;4.43;;;23.40;30.10;;;;;;2264795;61;20364;-58
2023/10/28 00:07:46;0.00;0.00;0.62;0.00;0.00;0.62;4.30;3.90;;;23.40;30.10;;;;;;2264626;61;20380;-59
2023/10/28 00:10:31;0.00;0.00;0.62;0.00;0.00;0.62;4.40;4.00;;;23.40;30.10;;;;;;2565651;45;20378;-58
2023/10/28 00:13:16;0.00;0.00;0.62;0.00;0.00;0.62;4.93;4.53;;;23.40;30.10;;;;;;2256567;61;20786;-59
2023/10/28 00:16:01;0.00;0.00;0.62;0.00;0.00;0.62;5.57;4.13;;;23.40;30.10;;;;;;2256639;61;20829;-59
2023/10/28 00:18:49;0.00;0.00;0.62;0.00;0.00;0.62;4.00;3.60;;;23.40;30.10;;;;;;2256346;61;20369;-58
2023/10/28 00:21:34;0.00;0.00;0.62;0.00;0.00;0.62;4.53;4.00;;;23.40;30.10;;;;;;2253422;61;20413;-59
2023/10/28 00:24:19;0.00;0.00;0.62;0.00;0.00;0.62;3.63;3.30;;;23.40;30.10;;;;;;2256844;61;20412;-58
2023/10/28 00:27:04;0.00;0.00;0.62;0.00;0.00;0.62;4.50;3.60;;;23.40;30.00;;;;;;2256679;61;20404;-58
2023/10/28 00:29:52;0.00;0.00;0.62;0.00;0.00;0.62;5.13;4.13;;;23.40;30.00;;;;;;2256440;61;20386;-58
2023/10/28 00:32:36;0.00;0.00;0.62;0.00;0.00;0.62;4.43;4.03;;;23.40;30.80;;;;;;2253540;61;20365;-58
2023/10/28 00:35:22;0.00;0.00;0.62;0.00;0.00;0.62;4.53;3.70;;;23.40;30.10;;;;;;2253481;61;20505;-60
2023/10/28 00:38:07;0.00;0.00;0.62;0.00;0.00;0.62;3.90;3.37;;;23.40;30.10;;;;;;2252970;61;20382;-58
2023/10/28 00:40:52;0.00;0.00;0.62;0.00;0.00;0.62;3.30;3.00;;;23.40;30.10;;;;;;2256801;61;20926;-60
2023/10/28 00:43:36;0.00;0.00;0.62;0.00;0.00;0.62;3.87;3.47;;;23.40;30.10;;;;;;2256914;61;20436;-58
2023/10/28 00:46:21;0.00;0.00;0.62;0.00;0.00;0.62;3.63;3.17;;;23.40;30.10;;;;;;2256822;61;20373;-57
2023/10/28 00:49:07;0.00;0.00;0.62;0.00;0.00;0.62;4.33;3.80;;;23.40;30.10;;;;;;2253123;61;20404;-56
2023/10/28 00:51:53;0.00;0.00;0.62;0.00;0.00;0.62;3.73;3.33;;;23.40;30.10;;;;;;2256643;61;20361;-58
2023/10/28 00:54:38;0.00;0.00;0.62;0.00;0.00;0.62;4.13;3.30;;;23.40;30.00;;;;;;2256974;61;20936;-57
2023/10/28 00:57:25;0.00;0.00;0.62;0.00;0.00;0.62;3.93;3.53;;;23.40;30.10;;;;;;2253626;61;20369;-58
2023/10/28 01:00:12;0.00;0.00;0.62;0.00;0.00;0.62;4.10;3.57;;;23.40;30.00;;;;;;2253069;61;20365;-59
2023/10/28 01:02:56;0.00;0.00;0.62;0.00;0.00;0.62;3.83;3.20;;;23.40;30.00;;;;;;2250760;61;20397;-59
2023/10/28 01:05:40;0.00;0.00;0.62;0.00;0.00;0.62;4.10;3.47;;;23.40;30.00;;;;;;2257901;61;20440;-59
2023/10/28 01:08:26;0.00;0.00;0.62;0.00;0.00;0.62;3.80;3.20;;;23.40;30.10;;;;;;2257639;61;20892;-60
2023/10/28 01:11:14;0.00;0.00;0.62;0.00;0.00;0.62;4.17;3.30;;;23.40;30.10;;;;;;2264083;61;20364;-57
2023/10/28 01:13:59;0.00;0.00;0.62;0.00;0.00;0.62;3.13;2.80;;;23.40;30.10;;;;;;2261385;61;20791;-59
2023/10/28 01:16:45;0.00;0.00;0.62;0.00;0.00;0.62;3.30;3.00;;;23.40;30.10;;;;;;2264840;61;20770;-59
2023/10/28 01:19:34;0.00;0.00;0.62;0.00;0.00;0.62;3.20;2.53;;;23.40;30.10;;;;;;2261302;61;20360;-60
2023/10/28 01:22:21;0.00;0.00;0.62;0.00;0.00;0.62;3.40;2.93;;;23.40;30.10;;;;;;2265322;61;20908;-58
2023/10/28 01:25:09;0.00;0.00;0.62;0.00;0.00;0.62;3.20;2.90;;;23.40;30.10;;;;;;2262168;61;20409;-60
2023/10/28 01:27:53;0.00;0.00;0.62;0.00;0.00;0.62;3.50;3.00;;;23.40;30.10;;;;;;2265132;61;20407;-59
2023/10/28 01:30:38;0.00;0.00;0.62;0.00;0.00;0.62;4.33;3.10;;;23.40;30.10;;;;;;2261892;61;20380;-57
2023/10/28 01:33:23;0.00;0.00;0.62;0.00;0.00;0.62;3.47;3.10;;;23.40;30.00;;;;;;2265456;61;20422;-60
2023/10/28 01:36:08;0.00;0.00;0.62;0.00;0.00;0.62;3.33;2.93;;;23.40;30.00;;;;;;2265117;61;20762;-57
2023/10/28 01:38:54;0.00;0.00;0.62;0.00;0.00;0.62;3.90;2.87;;;23.40;30.00;;;;;;2261868;61;20414;-56
2023/10/28 01:41:38;0.00;0.00;0.62;0.00;0.00;0.62;3.37;2.70;;;23.40;30.10;;;;;;2262103;61;20427;-59
2023/10/28 01:44:23;0.00;0.00;0.62;0.00;0.00;0.62;3.90;3.40;;;23.40;30.10;;;;;;2265209;61;20788;-55
2023/10/28 01:47:10;0.00;0.00;0.62;0.00;0.00;0.62;3.70;3.17;;;23.40;30.10;;;;;;2261091;61;20344;-59
2023/10/28 01:49:57;0.00;0.00;0.62;0.00;0.00;0.62;3.20;2.90;;;23.40;30.10;;;;;;2260935;61;20407;-60
2023/10/28 01:52:42;0.00;0.00;0.62;0.00;0.00;0.62;3.90;3.13;;;23.40;30.10;;;;;;2260715;61;20395;-56
2023/10/28 01:55:28;0.00;0.00;0.62;0.00;0.00;0.62;3.10;2.80;;;23.40;30.10;;;;;;2258187;61;20869;-59
2023/10/28 01:58:13;0.00;0.00;0.62;0.00;0.00;0.62;3.17;2.70;;;23.40;30.10;;;;;;2256196;61;20404;-58
2023/10/28 02:00:57;0.00;0.00;0.62;0.00;0.00;0.62;4.07;3.23;;;23.40;30.10;;;;;;2276878;58;20378;-61
2023/10/28 02:03:42;0.00;0.00;0.62;0.00;0.00;0.62;3.17;2.70;;;23.40;30.10;;;;;;2257153;61;20412;-59
2023/10/28 02:06:28;0.00;0.00;0.62;0.00;0.00;0.62;3.50;3.20;;;23.30;30.00;;;;;;2253853;61;20914;-57
2023/10/28 02:09:13;0.00;0.00;0.62;0.00;0.00;0.62;3.67;2.90;;;23.40;30.10;;;;;;2254956;61;20392;-58
2023/10/28 02:12:01;0.00;0.00;0.62;0.00;0.00;0.62;2.80;2.37;;;23.40;30.10;;;;;;2261249;61;20365;-60
2023/10/28 02:14:46;0.00;0.00;0.62;0.00;0.00;0.62;3.30;2.80;;;23.40;30.10;;;;;;2257326;61;20396;-59
2023/10/28 02:17:31;0.00;0.00;0.62;0.00;0.00;0.62;3.23;2.90;;;23.30;30.00;;;;;;2261107;61;20830;-59
2023/10/28 02:20:16;0.00;0.00;0.62;0.00;0.00;0.62;3.00;2.60;;;23.40;30.00;;;;;;2257849;61;20797;-58
2023/10/28 02:23:00;0.00;0.00;0.62;0.00;0.00;0.62;3.70;3.20;;;23.40;30.10;;;;;;2258107;61;20440;-57
2023/10/28 02:25:46;0.00;0.00;0.62;0.00;0.00;0.62;3.93;3.53;;;23.30;30.00;;;;;;2261184;61;20932;-58
2023/10/28 02:28:32;0.00;0.00;0.62;0.00;0.00;0.62;3.60;3.30;;;23.40;30.10;;;;;;2260795;61;20499;-60
2023/10/28 02:31:17;0.00;0.00;0.62;0.00;0.00;0.62;4.40;3.53;;;23.40;30.10;;;;;;2256843;61;20442;-59
2023/10/28 02:34:04;0.00;0.00;0.62;0.00;0.00;0.62;3.73;3.20;;;23.30;30.00;;;;;;2264930;47;20415;-59
2023/10/28 02:36:49;0.00;0.00;0.62;0.00;0.00;0.62;4.20;3.80;;;23.30;30.00;;;;;;2265344;61;20901;-57
2023/10/28 02:39:34;0.00;0.00;0.62;0.00;0.00;0.62;4.17;3.37;;;23.30;30.70;;;;;;2264896;61;20464;-60
2023/10/28 02:42:21;0.00;0.00;0.62;0.00;0.00;0.62;3.57;3.10;;;23.30;30.00;;;;;;2263951;61;20447;-56
2023/10/28 02:45:09;0.00;0.00;0.62;0.00;0.00;0.62;3.80;3.23;;;23.40;30.00;;;;;;2261321;61;20498;-59
2023/10/28 02:47:54;0.00;0.00;0.62;0.00;0.00;0.62;3.70;3.10;;;23.30;30.00;;;;;;2260357;61;20408;-58
2023/10/28 02:50:38;0.00;0.00;0.62;0.00;0.00;0.62;3.80;3.20;;;23.30;30.00;;;;;;2260590;61;20365;-59
2023/10/28 02:53:23;0.00;0.00;0.62;0.00;0.00;0.62;3.63;3.13;;;23.30;30.00;;;;;;2261055;61;20385;-59
2023/10/28 02:56:08;0.00;0.00;0.62;0.00;0.00;0.62;3.80;3.20;;;23.30;30.00;;;;;;2261300;61;20427;-57
2023/10/28 02:58:53;0.00;0.00;0.62;0.00;0.00;0.62;4.50;3.50;;;23.30;30.00;;;;;;2260462;61;20451;-58
2023/10/28 03:01:39;0.00;0.00;0.62;0.00;0.00;0.62;4.20;3.30;;;23.30;30.00;;;;;;2261233;61;20454;-59
2023/10/28 03:04:24;0.00;0.00;0.62;0.00;0.00;0.62;5.10;3.63;;;23.40;30.10;;;;;;2258964;47;20414;-60
2023/10/28 03:07:09;0.00;0.00;0.62;0.00;0.00;0.62;3.83;3.17;;;23.30;30.00;;;;;;2253045;61;20470;-57
2023/10/28 03:09:53;0.00;0.00;0.62;0.00;0.00;0.62;4.03;3.13;;;23.30;30.00;;;;;;2252969;61;20430;-59
2023/10/28 03:12:39;0.00;0.00;0.62;0.00;0.00;0.62;5.00;3.70;;;23.30;30.00;;;;;;2252349;61;20401;-59
2023/10/28 03:15:24;0.00;0.00;0.62;0.00;0.00;0.62;4.40;2.87;;;23.30;30.00;;;;;;2252891;61;21037;-58
2023/10/28 03:18:10;0.00;0.00;0.62;0.00;0.00;0.62;4.13;3.23;;;23.30;30.00;;;;;;2252240;61;20995;-58
2023/10/28 03:20:56;0.00;0.00;0.62;0.00;0.00;0.62;3.47;3.17;;;23.30;30.00;;;;;;2252819;61;20878;-59
2023/10/28 03:23:41;0.00;0.00;0.62;0.00;0.00;0.62;4.23;3.43;;;23.30;30.00;;;;;;2252695;61;20518;-56
2023/10/28 03:26:26;0.00;0.00;0.62;0.00;0.00;0.62;4.23;3.53;;;23.30;30.00;;;;;;2252386;61;20906;-59
2023/10/28 03:29:11;0.00;0.00;0.62;0.00;0.00;0.62;3.30;2.80;;;23.40;30.00;;;;;;2252217;61;20458;-59
2023/10/28 03:31:57;0.00;0.00;0.62;0.00;0.00;0.62;3.27;2.70;;;23.30;30.00;;;;;;2252474;61;20418;-57
2023/10/28 03:34:43;0.00;0.00;0.62;0.00;0.00;0.62;3.23;2.43;;;23.30;30.00;;;;;;2252378;61;20386;-59
2023/10/28 03:37:30;0.00;0.00;0.62;0.00;0.00;0.62;3.00;2.70;;;23.30;30.00;;;;;;2253054;61;20374;-57
2023/10/28 03:40:15;0.00;0.00;0.62;0.00;0.00;0.62;3.60;3.07;;;23.30;30.00;;;;;;2252341;61;20470;-59
2023/10/28 03:43:00;0.00;0.00;0.62;0.00;0.00;0.62;3.53;3.10;;;23.30;30.00;;;;;;2252463;61;20485;-58
2023/10/28 03:45:45;0.00;0.00;0.62;0.00;0.00;0.62;4.20;3.50;;;23.30;30.00;;;;;;2252477;61;20403;-58
2023/10/28 03:48:30;0.00;0.00;0.62;0.00;0.00;0.62;3.20;2.60;;;23.30;30.00;;;;;;2254837;61;20794;-59
2023/10/28 03:51:15;0.00;0.00;0.62;0.00;0.00;0.62;3.20;2.90;;;23.30;30.00;;;;;;2252756;61;20371;-57
2023/10/28 03:54:01;0.00;0.00;0.62;0.00;0.00;0.62;4.87;3.43;;;23.30;30.00;;;;;;2252908;61;20437;-54
2023/10/28 03:56:45;0.00;0.00;0.62;0.00;0.00;0.62;4.03;2.90;;;23.30;30.00;;;;;;2252850;61;20442;-60
2023/10/28 03:59:30;0.00;0.00;0.62;0.00;0.00;0.62;4.30;3.40;;;23.30;30.00;;;;;;2251808;61;20947;-57
2023/10/28 04:02:15;0.00;0.00;0.62;0.00;0.00;0.62;3.10;2.60;;;23.30;30.00;;;;;;2253126;61;20382;-59
2023/10/28 04:05:00;0.00;0.00;0.62;0.00;0.00;0.62;3.90;2.70;;;23.30;30.00;;;;;;2252566;61;20383;-60
2023/10/28 04:07:45;0.00;0.00;0.62;0.00;0.00;0.62;4.30;3.40;;;23.30;30.00;;;;;;2252916;61;20359;-59
2023/10/28 04:10:30;0.00;0.00;0.62;0.00;0.00;0.62;4.93;3.33;;;23.30;30.00;;;;;;2252892;61;20367;-57
2023/10/28 04:13:14;0.00;0.00;0.62;0.00;0.00;0.62;3.87;3.50;;;23.30;30.60;;;;;;2252633;61;20425;-58
2023/10/28 04:15:59;0.00;0.00;0.62;0.00;0.00;0.62;4.00;3.03;;;23.30;30.00;;;;;;2252895;61;20366;-58
2023/10/28 04:18:44;0.00;0.00;0.62;0.00;0.00;0.62;3.50;3.20;;;23.30;30.00;;;;;;2252393;61;20406;-60
2023/10/28 04:21:29;0.00;0.00;0.62;0.00;0.00;0.62;4.90;3.93;;;23.30;30.00;;;;;;2252627;61;20430;-58
2023/10/28 04:24:15;0.00;0.00;0.62;0.00;0.00;0.62;3.93;3.30;;;23.30;30.00;;;;;;2252783;61;20386;-59
2023/10/28 04:26:59;0.00;0.00;0.62;0.00;0.00;0.62;5.20;4.30;;;23.30;30.00;;;;;;2252908;61;20413;-56
2023/10/28 04:29:44;0.00;0.00;0.62;0.00;0.00;0.62;3.93;3.50;;;23.30;30.00;;;;;;2252463;61;20947;-60
2023/10/28 04:32:29;0.00;0.00;0.62;0.00;0.00;0.62;5.23;4.40;;;23.30;30.00;;;;;;2252201;61;20385;-59
2023/10/28 04:35:15;0.00;0.00;0.62;0.00;0.00;0.62;5.50;4.70;;;23.30;30.00;;;;;;2252707;61;20371;-56
2023/10/28 04:37:59;0.00;0.00;0.62;0.00;0.00;0.62;5.03;4.27;;;23.30;30.60;;;;;;2252323;61;20406;-60
2023/10/28 04:40:45;0.00;0.00;0.62;0.00;0.00;0.62;5.87;4.60;;;23.30;30.00;;;;;;2252632;61;20406;-62
2023/10/28 04:43:30;0.00;0.00;0.62;0.00;0.00;0.62;5.53;4.70;;;23.30;30.00;;;;;;2252514;61;20398;-59
2023/10/28 04:46:15;0.00;0.00;0.62;0.00;0.00;0.62;5.20;4.47;;;23.30;30.00;;;;;;2252832;61;20783;-57
2023/10/28 04:49:00;0.00;0.00;0.62;0.00;0.00;0.62;6.00;5.40;;;23.30;30.00;;;;;;2251620;61;20426;-60
2023/10/28 04:51:44;0.00;0.00;0.62;0.00;0.00;0.62;5.80;4.67;;;23.30;30.00;;;;;;2252347;61;20413;-58
2023/10/28 04:54:29;0.00;0.00;0.62;0.00;0.00;0.62;6.80;5.50;;;23.30;30.00;;;;;;2252439;61;20401;-55
2023/10/28 04:57:15;0.00;0.00;0.62;0.00;0.00;0.62;6.90;5.53;;;23.30;30.00;;;;;;2252359;61;20446;-59
2023/10/28 05:00:00;0.00;0.00;0.62;0.00;0.00;0.62;6.57;5.23;;;23.30;30.00;;;;;;2252539;61;20409;-58
2023/10/28 05:02:45;0.00;0.00;0.62;0.00;0.00;0.62;6.10;5.27;;;23.30;30.00;;;;;;2252630;61;20920;-61
2023/10/28 05:05:29;0.00;0.00;0.62;0.00;0.00;0.62;6.60;5.60;;;23.30;30.00;;;;;;2252510;61;20406;-57
2023/10/28 05:08:16;0.00;0.00;0.62;0.00;0.00;0.62;6.13;5.33;;;23.30;30.00;;;;;;2252098;61;20835;-60
2023/10/28 05:11:01;0.00;0.00;0.62;0.00;0.00;0.62;7.27;5.90;;;23.30;30.00;;;;;;2252442;61;20386;-59
2023/10/28 05:14:14;0.00;0.00;0.62;0.00;0.00;0.62;6.70;5.70;;;23.30;30.00;;;;;;2290060;40;20548;-54
2023/10/28 05:16:58;0.00;0.00;0.62;0.00;0.00;0.62;8.03;6.17;;;23.30;30.00;;;;;;2262373;61;20377;-59
2023/10/28 05:19:43;0.00;0.00;0.62;0.00;0.00;0.62;6.80;5.53;;;23.30;30.00;;;;;;2260262;61;20368;-58
2023/10/28 05:22:28;0.00;0.00;0.62;0.00;0.00;0.62;7.07;5.77;;;23.30;30.00;;;;;;2260672;61;20396;-56
2023/10/28 05:25:13;0.00;0.00;0.62;0.00;0.00;0.62;6.23;5.60;;;23.30;30.00;;;;;;2256680;61;20389;-58
2023/10/28 05:27:57;0.00;0.00;0.62;0.00;0.00;0.62;6.83;6.13;;;23.30;30.00;;;;;;2256513;61;20457;-58
2023/10/28 05:30:43;0.00;0.00;0.62;0.00;0.00;0.62;7.03;5.60;;;23.30;30.00;;;;;;2256725;61;20637;-56
2023/10/28 05:33:29;0.00;0.00;0.62;0.00;0.00;0.62;7.07;5.90;;;23.30;30.00;;;;;;2256490;61;20421;-59
2023/10/28 05:36:16;0.00;0.00;0.62;0.00;0.00;0.62;6.33;5.63;;;23.30;30.00;;;;;;2253459;61;21051;-57
2023/10/28 05:39:00;0.00;0.00;0.62;0.00;0.00;0.62;7.27;6.20;;;23.30;30.00;;;;;;2256071;61;20369;-55
2023/10/28 05:41:45;0.00;0.00;0.62;0.00;0.00;0.62;8.23;5.97;;;23.30;30.00;;;;;;2256498;61;20370;-59
2023/10/28 05:44:30;0.00;0.00;0.62;0.00;0.00;0.62;6.47;5.50;;;23.30;30.00;;;;;;2256622;61;20452;-59
2023/10/28 05:47:17;0.00;0.00;0.62;0.00;0.00;0.62;7.07;5.10;;;23.30;30.00;;;;;;2256670;61;20429;-59
2023/10/28 05:50:07;0.00;0.00;0.62;0.00;0.00;0.62;7.30;6.03;;;23.30;30.00;;;;;;2256364;61;20412;-60
2023/10/28 05:52:52;0.00;0.00;0.62;0.00;0.00;0.62;5.87;5.27;;;23.30;30.00;;;;;;2256889;61;20413;-57
2023/10/28 05:55:36;0.00;0.00;0.62;0.00;0.00;0.62;6.07;5.13;;;23.30;30.00;;;;;;2256692;61;20389;-59
2023/10/28 05:58:22;0.00;0.00;0.62;0.00;0.00;0.62;6.77;5.60;;;23.30;30.00;;;;;;2256285;61;20413;-57
2023/10/28 06:01:07;0.00;0.00;0.62;0.00;0.00;0.62;6.20;5.10;;;23.30;30.00;;;;;;2256576;61;20496;-58
2023/10/28 06:03:52;0.00;0.00;0.62;0.00;0.00;0.62;6.33;5.70;;;23.30;30.00;;;;;;2256582;61;20405;-59
2023/10/28 06:06:37;0.00;0.00;0.62;0.00;0.00;0.62;5.70;5.07;;;23.30;30.00;;;;;;2256876;61;20423;-57
2023/10/28 06:09:23;0.00;0.00;0.62;0.00;0.00;0.62;6.90;5.50;;;23.30;30.00;;;;;;2257080;61;20365;-56
2023/10/28 06:12:08;0.00;0.00;0.62;0.00;0.00;0.62;5.97;4.97;;;23.30;30.00;;;;;;2257589;61;20412;-55
2023/10/28 06:14:53;0.00;0.00;0.62;0.00;0.00;0.62;5.63;5.07;;;23.20;30.00;;;;;;2257135;61;20877;-55
2023/10/28 06:17:37;0.00;0.00;0.62;0.00;0.00;0.62;5.77;5.00;;;23.30;30.00;;;;;;2257243;61;20412;-57
2023/10/28 06:20:23;0.00;0.00;0.62;0.00;0.00;0.62;7.60;6.13;;;23.30;30.00;;;;;;2257255;61;20366;-57
2023/10/28 06:23:08;0.00;0.00;0.62;0.00;0.00;0.62;6.00;5.03;;;23.20;30.00;;;;;;2257278;61;20425;-58
2023/10/28 06:25:52;0.00;0.00;0.62;0.00;0.00;0.62;5.77;5.20;;;23.30;30.00;;;;;;2257210;61;20417;-57
2023/10/28 06:28:37;0.00;0.00;0.62;0.00;0.00;0.62;7.30;6.00;;;23.20;30.00;;;;;;2256982;61;20986;-59
2023/10/28 06:31:22;0.00;0.00;0.62;0.00;0.00;0.62;5.43;4.60;;;23.20;30.00;;;;;;2257173;61;20820;-59
2023/10/28 06:34:06;0.00;0.00;0.62;0.00;0.00;0.62;6.63;5.80;;;23.30;30.10;;;;;;2257268;61;20435;-58
2023/10/28 06:36:52;0.00;0.00;0.62;0.00;0.00;0.62;6.20;5.50;;;23.20;30.00;;;;;;2257353;61;20373;-61
2023/10/28 06:39:37;0.00;0.00;0.62;0.00;0.00;0.62;7.63;5.77;;;23.20;30.00;;;;;;2253499;61;20659;-58
2023/10/28 06:42:23;0.00;0.00;0.62;0.00;0.00;0.62;6.10;5.20;;;23.30;30.00;;;;;;2253873;61;20921;-60
2023/10/28 06:45:09;0.00;0.00;0.62;0.00;0.00;0.62;5.87;5.27;;;23.20;30.00;;;;;;2257064;61;20898;-58
2023/10/28 06:47:54;0.00;0.00;0.62;0.00;0.00;0.62;5.83;4.93;;;23.20;30.00;;;;;;2256827;61;20365;-58
2023/10/28 06:50:38;0.00;0.00;0.62;0.00;0.00;0.62;7.63;6.23;;;23.20;30.00;;;;;;2256955;61;20454;-59
2023/10/28 06:53:24;0.00;0.00;0.62;0.00;0.00;0.62;6.83;5.57;;;23.20;30.00;;;;;;2257136;61;20390;-58
2023/10/28 06:56:09;0.00;0.00;0.62;0.00;0.00;0.62;5.47;4.90;;;23.20;30.00;;;;;;2256738;61;20423;-58
2023/10/28 06:58:53;0.00;0.00;0.62;0.00;0.00;0.62;6.60;5.30;;;23.20;30.00;;;;;;2256737;61;20365;-56
2023/10/28 07:01:39;0.00;0.00;0.62;0.00;0.00;0.62;6.53;5.60;;;23.20;30.00;;;;;;2256987;61;20474;-56
2023/10/28 07:04:24;0.00;0.00;0.62;0.00;0.00;0.62;5.30;4.80;;;23.20;30.00;;;;;;2257158;61;20433;-59
2023/10/28 07:07:12;0.00;0.00;0.62;0.00;0.00;0.62;5.97;5.30;;;23.30;30.00;;;;;;2257169;61;20412;-55
2023/10/28 07:09:59;0.00;0.00;0.62;0.00;0.00;0.62;6.20;4.80;;;23.20;30.00;;;;;;2256819;61;20513;-59
2023/10/28 07:12:43;0.00;0.00;0.62;0.00;0.00;0.62;5.80;5.20;;;23.20;30.00;;;;;;2256890;61;20366;-58
2023/10/28 07:15:28;0.00;0.00;0.62;0.00;0.00;0.62;5.93;4.83;;;23.20;30.00;;;;;;2256734;61;20377;-59
2023/10/28 07:18:13;0.00;0.00;0.62;0.00;0.00;0.62;6.67;5.40;;;23.30;30.00;;;;;;2256539;61;20402;-59
2023/10/28 07:21:00;0.00;0.00;0.62;0.00;0.00;0.62;6.17;4.93;;;23.20;30.00;;;;;;2256950;61;20386;-55
2023/10/28 07:23:45;0.00;0.00;0.62;0.00;0.00;0.62;6.27;5.20;;;23.20;30.00;;;;;;2256909;61;20389;-55
2023/10/28 07:26:32;0.00;0.00;0.62;0.00;0.00;0.62;7.13;5.70;;;23.20;30.00;;;;;;2257133;61;20480;-60
2023/10/28 07:29:17;0.00;0.00;0.62;0.00;0.00;0.62;5.43;4.50;;;23.20;30.00;;;;;;2256519;61;20504;-60
2023/10/28 07:32:02;0.00;0.00;0.62;0.00;0.00;0.62;5.37;4.87;;;23.20;30.00;;;;;;2257134;61;20865;-59
2023/10/28 07:34:47;0.00;0.00;0.62;0.00;0.00;0.62;6.30;5.40;;;23.20;30.00;;;;;;2256880;61;20977;-55
2023/10/28 07:37:31;0.00;0.00;0.62;0.00;0.00;0.62;6.13;4.97;;;23.20;30.00;;;;;;2256943;61;20397;-56
2023/10/28 07:40:16;0.00;0.00;0.62;0.00;0.00;0.62;5.73;4.87;;;23.20;30.00;;;;;;2257022;61;20852;-59
2023/10/28 07:43:02;0.00;0.00;0.62;0.00;0.00;0.62;6.10;5.50;;;23.20;30.00;;;;;;2256879;61;20525;-59
2023/10/28 07:45:47;0.00;0.00;0.62;0.00;0.00;0.62;4.93;4.40;;;23.20;30.00;;;;;;2256865;61;20505;-58
2023/10/28 07:48:31;0.00;0.00;0.62;0.00;0.00;0.62;5.40;4.83;;;23.20;30.00;;;;;;2251894;61;20377;-59
2023/10/28 07:51:16;0.00;0.00;0.62;0.00;0.00;0.62;5.60;4.77;;;23.20;30.00;;;;;;2252832;61;20459;-59
2023/10/28 07:54:02;0.00;0.00;0.62;0.00;0.00;0.62;5.00;4.30;;;23.20;30.00;;;;;;2252627;61;20429;-60
2023/10/28 07:56:47;0.00;0.00;0.62;0.00;0.00;0.62;6.03;5.17;;;23.20;30.00;;;;;;2252743;61;20452;-59
2023/10/28 07:59:33;0.00;0.00;0.62;0.00;0.00;0.62;5.67;5.00;;;23.20;30.00;;;;;;2252656;61;20374;-61
2023/10/28 08:02:17;0.00;0.00;0.62;0.00;0.00;0.62;5.50;5.00;;;23.20;30.00;;;;;;2252690;61;20965;-57
2023/10/28 08:05:03;0.00;0.00;0.62;0.00;0.00;0.62;6.00;4.80;;;23.20;30.00;;;;;;2253051;61;20435;-57
2023/10/28 08:07:50;0.00;0.00;0.62;0.00;0.00;0.62;5.03;4.40;;;23.20;30.00;;;;;;2252647;61;20864;-57
2023/10/28 08:10:34;0.00;0.00;0.62;0.00;0.00;0.62;5.23;4.30;;;23.20;30.00;;;;;;2252946;61;20938;-58
2023/10/28 08:13:19;0.00;0.00;0.62;0.00;0.00;0.62;5.87;4.67;;;23.20;30.00;;;;;;2252600;61;20938;-57
2023/10/28 08:16:09;0.00;0.00;0.62;0.00;0.00;0.62;6.80;4.87;;;23.20;30.00;;;;;;2252473;61;20954;-61
2023/10/28 08:18:55;0.00;0.00;0.62;0.00;0.00;0.62;5.87;5.27;;;23.20;30.00;;;;;;2252068;61;20910;-62
2023/10/28 08:21:40;0.00;0.00;0.62;0.00;0.00;0.62;6.00;5.20;;;23.20;30.00;;;;;;2252324;61;20394;-61
2023/10/28 08:24:25;0.00;0.00;0.62;0.00;0.00;0.62;6.13;4.90;;;23.20;30.00;;;;;;2252380;61;20947;-61
2023/10/28 08:27:10;0.00;0.00;0.62;0.00;0.00;0.62;5.90;4.90;;;23.20;30.00;;;;;;2252505;61;20367;-62
2023/10/28 08:29:56;0.00;0.00;0.62;0.00;0.00;0.62;5.30;4.80;;;23.20;30.00;;;;;;2252216;61;20407;-60
2023/10/28 08:32:42;0.00;0.00;0.62;0.00;0.00;0.62;6.23;5.27;;;23.20;30.00;;;;;;2252710;61;20362;-61
2023/10/28 08:35:28;0.00;0.00;0.62;0.00;0.00;0.62;6.73;5.57;;;23.20;30.00;;;;;;2252313;61;20749;-62
2023/10/28 08:38:12;0.00;0.00;0.62;0.00;0.00;0.62;7.70;6.27;;;23.20;30.00;;;;;;2251889;61;20462;-61
2023/10/28 08:40:59;0.00;0.00;0.62;0.00;0.00;0.62;7.50;6.80;;;23.20;30.00;;;;;;2252563;61;20426;-63
2023/10/28 08:43:45;0.00;0.00;0.62;0.00;0.00;0.62;7.13;6.00;;;23.20;30.00;;;;;;2254622;61;20820;-61
2023/10/28 08:46:31;0.00;0.00;0.62;0.00;0.00;0.62;7.00;5.83;;;23.20;30.00;;;;;;2256123;61;20417;-60
2023/10/28 08:49:21;0.00;0.00;0.62;0.00;0.00;0.62;8.20;6.63;;;23.20;30.00;;;;;;2256137;61;20913;-61
2023/10/28 08:52:10;0.00;0.00;0.62;0.00;0.00;0.62;7.20;6.50;;;23.30;30.10;;;;;;2256804;61;20770;-53
2023/10/28 08:54:57;0.00;0.00;0.62;0.00;0.00;0.62;8.87;7.37;;;23.20;30.00;;;;;;2256663;61;20385;-58
2023/10/28 08:57:46;0.00;0.00;0.62;0.00;0.00;0.62;9.80;6.70;;;23.20;30.00;;;;;;2256978;61;20452;-58
2023/10/28 09:00:32;0.00;0.00;0.62;0.00;0.00;0.62;7.30;6.53;;;23.20;30.00;;;;;;2256838;61;20366;-58
2023/10/28 09:03:22;0.00;0.00;0.62;0.00;0.00;0.62;9.23;7.73;;;23.20;30.00;;;;;;2256342;61;20558;-59
2023/10/28 09:06:08;0.00;0.00;0.62;0.00;0.00;0.62;9.27;8.30;;;23.20;30.00;;;;;;2257058;61;20358;-57
2023/10/28 09:08:54;0.00;0.00;0.62;0.00;0.00;0.62;8.70;7.33;;;23.20;30.00;;;;;;2256225;61;20420;-59
2023/10/28 09:11:39;0.00;0.00;0.62;0.00;0.00;0.62;9.10;7.60;;;23.20;30.00;;;;;;2256820;61;20397;-59
2023/10/28 09:14:24;0.00;0.00;0.62;0.00;0.00;0.62;9.67;8.17;;;23.20;30.00;;;;;;2256580;61;20382;-57
2023/10/28 09:17:09;0.00;0.00;0.62;0.00;0.00;0.62;10.90;8.70;;;23.20;30.00;;;;;;2256679;61;20444;-61
2023/10/28 09:19:54;0.00;0.00;0.62;0.00;0.00;0.62;11.20;9.60;;;23.20;30.00;;;;;;2256001;61;20365;-61
2023/10/28 09:22:42;0.00;0.00;0.62;0.00;0.00;0.62;10.90;9.43;;;23.20;30.00;;;;;;2256492;61;20994;-58
2023/10/28 09:25:28;0.00;0.00;0.62;0.00;0.00;0.62;10.07;9.00;;;23.20;30.10;;;;;;2256658;61;20420;-58
2023/10/28 09:28:16;0.00;0.00;0.62;0.00;0.00;0.62;11.40;10.00;;;23.30;30.10;;;;;;2256155;61;20906;-54
2023/10/28 09:31:00;0.00;0.00;0.62;0.00;0.00;0.62;11.87;9.80;;;23.20;30.00;;;;;;2256179;61;20362;-58
2023/10/28 09:33:47;0.00;0.00;0.62;0.00;0.00;0.62;11.33;9.90;;;23.20;30.00;;;;;;2256595;61;20462;-52
2023/10/28 09:36:32;0.00;0.00;0.62;0.00;0.00;0.62;11.70;10.20;;;23.20;30.00;;;;;;2256468;61;20370;-58
2023/10/28 09:39:19;0.00;0.00;0.62;0.00;0.00;0.62;12.87;10.37;;;23.20;30.00;;;;;;2256294;61;20405;-57
2023/10/28 09:42:05;0.00;0.00;0.62;0.00;0.00;0.62;12.47;10.37;;;23.20;30.00;;;;;;2256561;61;20649;-54
2023/10/28 09:44:51;0.00;0.00;0.62;0.00;0.00;0.62;12.23;10.10;;;23.20;30.10;;;;;;2253753;61;20426;-58
2023/10/28 09:47:49;0.00;0.00;0.62;0.00;0.00;0.62;12.73;10.17;;;23.20;30.00;;;;;;2257391;61;20923;-58
2023/10/28 09:50:42;0.00;0.00;0.62;0.00;0.00;0.62;12.33;10.93;;;23.20;30.00;;;;;;2257192;61;20458;-58
2023/10/28 09:53:33;0.00;0.00;0.62;0.00;0.00;0.62;13.43;10.37;;;23.20;30.00;;;;;;2256905;61;20429;-58
2023/10/28 09:56:21;0.00;0.00;0.62;0.00;0.00;0.62;12.63;11.23;;;23.20;30.10;;;;;;2257647;61;20357;-58
2023/10/28 09:59:15;0.00;0.00;0.62;0.00;0.00;0.62;12.70;11.10;;;23.20;30.10;;;;;;2256850;61;20474;-58
2023/10/28 10:02:20;0.00;0.00;0.62;0.00;0.00;0.62;12.77;10.10;;;23.20;30.10;;;;;;2257234;61;20367;-57
2023/10/28 10:05:15;0.00;0.00;0.62;0.00;0.00;0.62;12.83;11.27;;;23.20;30.10;;;;;;2257236;61;20446;-58
2023/10/28 10:08:00;0.00;0.00;0.62;0.00;0.00;0.62;12.63;11.20;;;23.20;30.10;;;;;;2256768;61;20373;-54
2023/10/28 10:10:47;0.00;0.00;0.62;0.00;0.00;0.62;12.60;10.50;;;23.20;30.10;;;;;;2257175;61;20366;-58
2023/10/28 10:13:42;0.00;0.00;0.62;0.00;0.00;0.62;12.00;10.37;;;23.20;30.10;;;;;;2257169;61;20425;-59
2023/10/28 10:16:39;0.00;0.00;0.62;0.00;0.00;0.62;11.03;9.93;;;23.30;30.20;;;;;;2254055;61;20370;-57
2023/10/28 10:19:31;0.00;0.00;0.62;0.00;0.00;0.62;12.10;10.37;;;23.20;30.10;;;;;;2256943;61;20389;-56
2023/10/28 10:22:27;0.00;0.00;0.62;0.00;0.00;0.62;13.13;11.73;;;23.30;30.20;;;;;;2256933;61;20378;-59
2023/10/28 10:25:12;0.00;0.00;0.62;0.00;0.00;0.62;13.23;11.80;;;23.20;30.20;;;;;;2257076;61;20366;-59
2023/10/28 10:28:11;0.00;0.00;0.62;0.00;0.00;0.62;15.33;11.27;;;23.20;30.10;;;;;;2256771;61;20485;-59
2023/10/28 10:31:08;0.00;0.00;0.62;0.00;0.00;0.62;13.63;11.83;;;23.20;30.20;;;;;;2257169;61;20398;-59
2023/10/28 10:34:05;0.00;0.00;0.62;0.00;0.00;0.62;13.87;11.67;;;23.20;30.20;;;;;;2253873;61;20927;-57
2023/10/28 10:36:51;0.00;0.00;0.62;0.00;0.00;0.62;13.00;11.70;;;23.20;30.20;;;;;;2257150;61;20453;-57
2023/10/28 10:39:43;0.00;0.00;0.62;0.00;0.00;0.62;13.17;11.63;;;23.20;30.20;;;;;;2256842;61;20362;-59
2023/10/28 10:42:27;0.00;0.00;0.62;0.00;0.00;0.62;12.43;11.23;;;23.30;30.30;;;;;;2256833;61;20382;-59
2023/10/28 10:45:14;0.00;0.00;0.62;0.00;0.00;0.62;13.40;10.60;;;23.20;30.20;;;;;;2256895;61;20442;-59
2023/10/28 10:48:01;0.00;0.00;0.62;0.00;0.00;0.62;11.30;10.20;;;23.30;30.30;;;;;;2256677;61;20413;-58
2023/10/28 10:50:47;0.00;0.00;0.62;0.00;0.00;0.62;13.70;11.43;;;23.30;30.30;;;;;;2256810;61;20369;-59
2023/10/28 10:53:41;0.00;0.00;0.62;0.00;0.00;0.62;14.20;12.40;;;23.30;30.30;;;;;;2256841;61;20450;-59
2023/10/28 10:56:26;0.00;0.00;0.62;0.00;0.00;0.62;13.83;11.63;;;23.30;30.30;;;;;;2257196;61;20354;-60